createdAt,value
2022-11-06T00:00:43.709Z,11.28
2022-11-06T00:03:14.004Z,11.27
2022-11-06T00:05:57.200Z,11.27
2022-11-06T00:08:32.288Z,11.26
2022-11-06T00:11:02.121Z,11.25
2022-11-06T00:13:34.701Z,11.26
2022-11-06T00:16:06.214Z,11.25
2022-11-06T00:18:36.827Z,11.25
2022-11-06T00:21:10.680Z,11.25
2022-11-06T00:23:40.447Z,11.23
2022-11-06T00:26:11.203Z,11.21
2022-11-06T00:28:44.558Z,11.20
2022-11-06T00:31:16.899Z,11.17
2022-11-06T00:33:47.047Z,11.15
2022-11-06T00:36:18.805Z,11.12
2022-11-06T00:38:49.119Z,11.12
2022-11-06T00:41:19.681Z,11.10
2022-11-06T00:43:55.584Z,11.10
2022-11-06T00:46:25.812Z,11.07
2022-11-06T00:48:56.362Z,11.07
2022-11-06T00:51:31.297Z,11.05
2022-11-06T00:54:08.937Z,11.05
2022-11-06T00:56:38.835Z,11.02
2022-11-06T00:59:14.856Z,11.02
2022-11-06T01:01:47.069Z,11.00
2022-11-06T01:04:18.772Z,11.00
2022-11-06T01:06:50.781Z,10.99
2022-11-06T01:09:23.031Z,10.99
2022-11-06T01:14:47.349Z,10.98
2022-11-06T01:17:17.331Z,10.97
2022-11-06T01:19:47.103Z,10.99
2022-11-06T01:22:16.848Z,10.97
2022-11-06T01:24:46.743Z,10.96
2022-11-06T01:27:31.833Z,10.96
2022-11-06T01:30:04.387Z,10.96
2022-11-06T01:32:34.135Z,10.95
2022-11-06T01:35:03.843Z,10.97
2022-11-06T01:37:33.568Z,10.97
2022-11-06T01:40:03.646Z,11.00
2022-11-06T01:42:33.434Z,11.01
2022-11-06T01:45:32.379Z,11.03
2022-11-06T01:48:03.125Z,11.00
2022-11-06T01:50:32.976Z,10.99
2022-11-06T01:53:03.733Z,10.97
2022-11-06T01:55:46.140Z,10.99
2022-11-06T01:58:23.035Z,10.96
2022-11-06T02:00:56.672Z,10.98
2022-11-06T02:03:29.309Z,10.96
2022-11-06T02:06:00.850Z,10.97
2022-11-06T02:08:31.543Z,10.97
2022-11-06T02:11:01.550Z,10.98
2022-11-06T02:13:44.401Z,11.00
2022-11-06T02:16:25.661Z,11.00
2022-11-06T02:19:20.088Z,11.01
2022-11-06T02:22:16.491Z,11.03
2022-11-06T02:25:08.143Z,11.03
2022-11-06T02:27:40.948Z,11.02
2022-11-06T02:30:12.544Z,11.04
2022-11-06T02:32:46.038Z,11.06
2022-11-06T02:35:25.454Z,11.06
2022-11-06T02:38:01.063Z,11.08
2022-11-06T02:40:35.919Z,11.09
2022-11-06T02:43:10.849Z,11.09
2022-11-06T02:45:47.052Z,11.10
2022-11-06T02:48:19.948Z,11.10
2022-11-06T02:50:53.715Z,11.10
2022-11-06T02:53:27.883Z,11.11
2022-11-06T02:56:02.569Z,11.11
2022-11-06T02:58:39.450Z,11.13
2022-11-06T03:01:15.763Z,11.12
2022-11-06T03:03:52.417Z,11.12
2022-11-06T03:06:25.932Z,11.13
2022-11-06T03:08:59.470Z,11.13
2022-11-06T03:11:32.687Z,11.15
2022-11-06T03:14:12.669Z,11.18
2022-11-06T03:16:54.222Z,11.19
2022-11-06T03:19:30.440Z,11.20
2022-11-06T03:22:05.740Z,11.21
2022-11-06T03:24:41.263Z,11.20
2022-11-06T03:27:18.430Z,11.22
2022-11-06T03:29:53.696Z,11.22
2022-11-06T03:32:29.659Z,11.23
2022-11-06T03:35:07.091Z,11.23
2022-11-06T03:37:42.922Z,11.24
2022-11-06T03:40:17.032Z,11.25
2022-11-06T03:42:49.275Z,11.25
2022-11-06T03:45:25.587Z,11.26
2022-11-06T03:48:01.497Z,11.26
2022-11-06T03:50:35.860Z,11.26
2022-11-06T03:53:09.880Z,11.28
2022-11-06T03:55:44.379Z,11.26
2022-11-06T03:58:17.962Z,11.26
2022-11-06T04:00:52.484Z,11.28
2022-11-06T04:03:27.979Z,11.29
2022-11-06T04:06:01.539Z,11.30
2022-11-06T04:08:45.591Z,11.29
2022-11-06T04:11:31.062Z,11.31
2022-11-06T04:14:05.567Z,11.29
2022-11-06T04:16:41.778Z,11.29
2022-11-06T04:19:18.624Z,11.30
2022-11-06T04:22:04.199Z,11.27
2022-11-06T04:24:57.296Z,11.28
2022-11-06T04:27:36.731Z,11.30
2022-11-06T04:30:10.705Z,11.27
2022-11-06T04:33:00.362Z,11.29
2022-11-06T04:35:39.922Z,11.27
2022-11-06T04:38:13.965Z,11.27
2022-11-06T04:40:53.458Z,11.29
2022-11-06T04:43:31.188Z,11.29
2022-11-06T04:46:05.707Z,11.27
2022-11-06T04:48:40.125Z,11.27
2022-11-06T04:51:13.455Z,11.28
2022-11-06T04:53:45.008Z,11.29
2022-11-06T04:56:21.270Z,11.29
2022-11-06T04:58:51.207Z,11.29
2022-11-06T05:01:21.127Z,11.31
2022-11-06T05:03:54.009Z,11.31
2022-11-06T05:06:29.627Z,11.30
2022-11-06T05:09:01.429Z,11.32
2022-11-06T05:11:31.333Z,11.34
2022-11-06T05:14:01.385Z,11.35
2022-11-06T05:16:31.352Z,11.34
2022-11-06T05:19:04.101Z,11.34
2022-11-06T05:21:46.366Z,11.34
2022-11-06T05:24:16.160Z,11.34
2022-11-06T05:26:46.011Z,11.34
2022-11-06T05:29:16.978Z,11.35
2022-11-06T05:31:46.820Z,11.35
2022-11-06T05:34:21.735Z,11.36
2022-11-06T05:36:51.554Z,11.36
2022-11-06T05:39:21.345Z,11.36
2022-11-06T05:41:51.271Z,11.36
2022-11-06T05:44:23.222Z,11.37
2022-11-06T05:46:55.813Z,11.35
2022-11-06T05:49:35.940Z,11.36
2022-11-06T05:52:09.114Z,11.36
2022-11-06T05:54:39.050Z,11.37
2022-11-06T05:57:08.993Z,11.39
2022-11-06T05:59:38.784Z,11.38
2022-11-06T06:02:08.715Z,11.38
2022-11-06T06:04:41.196Z,11.41
2022-11-06T06:07:11.171Z,11.40
2022-11-06T06:09:41.005Z,11.38
2022-11-06T06:12:13.947Z,11.36
2022-11-06T06:14:49.250Z,11.36
2022-11-06T06:17:20.167Z,11.33
2022-11-06T06:19:52.748Z,11.34
2022-11-06T06:22:22.816Z,11.34
2022-11-06T06:24:52.766Z,11.32
2022-11-06T06:27:27.790Z,11.33
2022-11-06T06:29:57.665Z,11.31
2022-11-06T06:32:27.524Z,11.30
2022-11-06T06:34:59.824Z,11.29
2022-11-06T06:37:29.543Z,11.27
2022-11-06T06:39:59.284Z,11.26
2022-11-06T06:42:31.532Z,11.26
2022-11-06T06:45:01.400Z,11.25
2022-11-06T06:47:31.115Z,11.25
2022-11-06T06:50:03.479Z,11.26
2022-11-06T06:52:33.236Z,11.26
2022-11-06T06:55:10.751Z,11.25
2022-11-06T06:57:40.545Z,11.27
2022-11-06T07:00:11.942Z,11.27
2022-11-06T07:02:41.649Z,11.29
2022-11-06T07:05:14.169Z,11.29
2022-11-06T07:07:43.982Z,11.29
2022-11-06T07:10:13.853Z,11.29
2022-11-06T07:12:43.642Z,11.28
2022-11-06T07:15:13.960Z,11.29
2022-11-06T07:17:43.966Z,11.29
2022-11-06T07:20:17.334Z,11.30
2022-11-06T07:22:47.162Z,11.29
2022-11-06T07:25:16.956Z,11.27
2022-11-06T07:27:46.904Z,11.28
2022-11-06T07:30:17.007Z,11.27
2022-11-06T07:32:46.763Z,11.26
2022-11-06T07:35:19.227Z,11.27
2022-11-06T07:37:48.987Z,11.27
2022-11-06T07:43:11.028Z,11.29
2022-11-06T07:45:44.852Z,11.30
2022-11-06T07:48:14.900Z,11.31
2022-11-06T07:50:47.645Z,11.32
2022-11-06T07:53:17.382Z,11.32
2022-11-06T07:55:51.423Z,11.32
2022-11-06T07:58:21.616Z,11.32
2022-11-06T08:00:51.772Z,11.32
2022-11-06T08:03:22.460Z,11.32
2022-11-06T08:05:55.131Z,11.33
2022-11-06T08:08:24.915Z,11.32
2022-11-06T08:10:55.195Z,11.31
2022-11-06T08:13:26.165Z,11.31
2022-11-06T08:15:55.914Z,11.32
2022-11-06T08:18:25.624Z,11.32
2022-11-06T08:20:58.150Z,11.33
2022-11-06T08:23:28.118Z,11.35
2022-11-06T08:25:58.734Z,11.36
2022-11-06T08:28:29.543Z,11.37
2022-11-06T08:30:59.280Z,11.37
2022-11-06T08:33:28.971Z,11.38
2022-11-06T08:36:04.232Z,11.39
2022-11-06T08:38:34.237Z,11.39
2022-11-06T08:41:08.422Z,11.41
2022-11-06T08:43:39.001Z,11.41
2022-11-06T08:46:10.203Z,11.42
2022-11-06T08:48:39.945Z,11.41
2022-11-06T08:51:12.442Z,11.43
2022-11-06T08:53:42.284Z,11.44
2022-11-06T08:56:12.057Z,11.45
2022-11-06T08:58:41.797Z,11.47
2022-11-06T09:01:11.869Z,11.49
2022-11-06T09:03:41.622Z,11.51
2022-11-06T09:06:14.019Z,11.53
2022-11-06T09:08:43.780Z,11.52
2022-11-06T09:11:13.609Z,11.52
2022-11-06T09:13:43.568Z,11.54
2022-11-06T09:16:16.026Z,11.57
2022-11-06T09:18:46.467Z,11.61
2022-11-06T09:21:18.824Z,11.64
2022-11-06T09:23:48.948Z,11.66
2022-11-06T09:26:18.827Z,11.67
2022-11-06T09:28:49.922Z,11.68
2022-11-06T09:31:19.678Z,11.68
2022-11-06T09:33:49.456Z,11.69
2022-11-06T09:36:21.832Z,11.70
2022-11-06T09:38:51.770Z,11.72
2022-11-06T09:41:27.811Z,11.74
2022-11-06T09:44:13.962Z,11.76
2022-11-06T09:46:47.598Z,11.77
2022-11-06T09:49:23.966Z,11.80
2022-11-06T09:52:02.788Z,11.81
2022-11-06T09:54:38.112Z,11.80
2022-11-06T09:57:16.406Z,11.83
2022-11-06T09:59:47.467Z,11.83
2022-11-06T10:02:29.421Z,11.85
2022-11-06T10:05:07.022Z,11.85
2022-11-06T10:07:42.357Z,11.85
2022-11-06T10:10:19.179Z,11.85
2022-11-06T10:13:05.438Z,11.86
2022-11-06T10:15:39.463Z,11.84
2022-11-06T10:18:18.847Z,11.86
2022-11-06T10:20:55.187Z,11.85
2022-11-06T10:23:39.192Z,11.86
2022-11-06T10:26:16.099Z,11.86
2022-11-06T10:29:01.379Z,11.87
2022-11-06T10:31:40.495Z,11.86
2022-11-06T10:34:14.374Z,11.85
2022-11-06T10:36:50.202Z,11.87
2022-11-06T10:39:26.470Z,11.88
2022-11-06T10:42:03.900Z,11.88
2022-11-06T10:44:40.139Z,11.88
2022-11-06T10:47:18.697Z,11.89
2022-11-06T10:49:51.949Z,11.88
2022-11-06T10:52:47.942Z,11.92
2022-11-06T10:55:55.702Z,11.95
2022-11-06T10:58:33.020Z,11.97
2022-11-06T11:01:05.367Z,12.01
2022-11-06T11:03:38.320Z,12.06
2022-11-06T11:06:09.455Z,12.09
2022-11-06T11:08:43.169Z,12.12
2022-11-06T11:11:23.266Z,12.15
2022-11-06T11:14:38.219Z,12.18
2022-11-06T11:17:11.975Z,12.19
2022-11-06T11:19:44.290Z,12.22
2022-11-06T11:22:22.280Z,12.26
2022-11-06T11:25:04.078Z,12.29
2022-11-06T11:27:37.984Z,12.28
2022-11-06T11:30:23.558Z,12.32
2022-11-06T11:32:54.128Z,12.32
2022-11-06T11:35:28.226Z,12.34
2022-11-06T11:38:10.033Z,12.34
2022-11-06T11:40:41.100Z,12.31
2022-11-06T11:43:28.603Z,12.34
2022-11-06T11:46:20.945Z,12.35
2022-11-06T11:48:53.133Z,12.32
2022-11-06T11:51:30.516Z,12.37
2022-11-06T11:54:05.544Z,12.39
2022-11-06T11:57:02.961Z,12.40
2022-11-06T11:59:30.295Z,12.41
2022-11-06T12:02:06.912Z,12.43
2022-11-06T12:04:41.811Z,12.45
2022-11-06T12:07:25.942Z,12.45
2022-11-06T12:09:55.998Z,12.46
2022-11-06T12:12:29.304Z,12.48
2022-11-06T12:15:20.892Z,12.51
2022-11-06T12:18:14.687Z,12.53
2022-11-06T12:20:52.535Z,12.56
2022-11-06T12:23:29.148Z,12.60
2022-11-06T12:26:04.547Z,12.64
2022-11-06T12:28:38.175Z,12.64
2022-11-06T12:31:15.801Z,12.66
2022-11-06T12:34:09.116Z,12.69
2022-11-06T12:36:47.027Z,12.70
2022-11-06T12:39:23.126Z,12.72
2022-11-06T12:41:55.607Z,12.74
2022-11-06T12:44:25.662Z,12.75
2022-11-06T12:47:03.050Z,12.76
2022-11-06T12:50:11.271Z,12.81
2022-11-06T12:53:10.992Z,12.83
2022-11-06T12:55:49.730Z,12.85
2022-11-06T12:58:43.107Z,12.87
2022-11-06T13:01:23.696Z,12.87
2022-11-06T13:04:12.248Z,12.86
2022-11-06T13:07:14.160Z,12.88
2022-11-06T13:09:52.931Z,12.88
2022-11-06T13:12:28.866Z,12.88
2022-11-06T13:15:10.971Z,12.88
2022-11-06T13:17:47.871Z,12.85
2022-11-06T13:20:27.183Z,12.83
2022-11-06T13:23:05.707Z,12.80
2022-11-06T13:25:42.153Z,12.78
2022-11-06T13:28:29.986Z,12.76
2022-11-06T13:31:01.732Z,12.71
2022-11-06T13:33:35.941Z,12.69
2022-11-06T13:36:07.510Z,12.66
2022-11-06T13:38:43.358Z,12.65
2022-11-06T13:41:18.549Z,12.64
2022-11-06T13:43:53.413Z,12.65
2022-11-06T13:46:30.069Z,12.63
2022-11-06T13:49:11.816Z,12.63
2022-11-06T13:51:51.341Z,12.62
2022-11-06T13:54:33.920Z,12.61
2022-11-06T13:57:45.246Z,12.60
2022-11-06T14:00:40.069Z,12.57
2022-11-06T14:03:51.370Z,12.58
2022-11-06T14:06:24.297Z,12.57
2022-11-06T14:08:56.762Z,12.59
2022-11-06T14:11:33.870Z,12.59
2022-11-06T14:14:05.775Z,12.57
2022-11-06T14:16:37.496Z,12.58
2022-11-06T14:19:13.302Z,12.58
2022-11-06T14:21:49.328Z,12.56
2022-11-06T14:24:41.198Z,12.59
2022-11-06T14:27:51.654Z,12.60
2022-11-06T14:31:11.073Z,12.58
2022-11-06T14:34:01.579Z,12.56
2022-11-06T14:36:39.121Z,12.57
2022-11-06T14:39:16.100Z,12.56
2022-11-06T14:41:57.843Z,12.57
2022-11-06T14:44:47.314Z,12.58
2022-11-06T14:47:30.840Z,12.57
2022-11-06T14:50:04.943Z,12.56
2022-11-06T14:52:45.374Z,12.54
2022-11-06T14:55:31.621Z,12.52
2022-11-06T14:58:15.383Z,12.48
2022-11-06T15:00:55.186Z,12.50
2022-11-06T15:03:32.339Z,12.46
2022-11-06T15:06:05.458Z,12.45
2022-11-06T15:09:03.673Z,12.42
2022-11-06T15:11:52.466Z,12.38
2022-11-06T15:14:57.738Z,12.37
2022-11-06T15:17:32.387Z,12.31
2022-11-06T15:20:17.139Z,12.29
2022-11-06T15:22:53.133Z,12.23
2022-11-06T15:25:25.551Z,12.20
2022-11-06T15:28:07.791Z,12.16
2022-11-06T15:30:46.057Z,12.15
2022-11-06T15:33:23.978Z,12.12
2022-11-06T15:35:54.431Z,12.10
2022-11-06T15:38:27.427Z,12.09
2022-11-06T15:40:58.465Z,12.07
2022-11-06T15:43:32.781Z,12.04
2022-11-06T15:46:17.327Z,12.01
2022-11-06T15:48:50.228Z,11.98
2022-11-06T15:51:25.915Z,11.96
2022-11-06T15:53:56.371Z,11.95
2022-11-06T15:56:32.238Z,11.92
2022-11-06T15:59:13.819Z,11.89
2022-11-06T16:01:44.867Z,11.86
2022-11-06T16:04:22.066Z,11.86
2022-11-06T16:06:52.951Z,11.84
2022-11-06T16:09:26.641Z,11.83
2022-11-06T16:11:57.168Z,11.82
2022-11-06T16:14:28.659Z,11.81
2022-11-06T16:16:59.912Z,11.79
2022-11-06T16:19:36.560Z,11.76
2022-11-06T16:22:10.003Z,11.75
2022-11-06T16:24:46.044Z,11.74
2022-11-06T16:27:17.156Z,11.70
2022-11-06T16:29:51.688Z,11.68
2022-11-06T16:32:24.841Z,11.66
2022-11-06T16:34:57.220Z,11.64
2022-11-06T16:37:41.724Z,11.63
2022-11-06T16:40:47.157Z,11.61
2022-11-06T16:43:18.375Z,11.56
2022-11-06T16:46:05.578Z,11.56
2022-11-06T16:48:38.437Z,11.55
2022-11-06T16:51:16.072Z,11.55
2022-11-06T16:53:56.694Z,11.52
2022-11-06T16:56:28.819Z,11.47
2022-11-06T16:59:01.706Z,11.47
2022-11-06T17:01:39.250Z,11.42
2022-11-06T17:04:09.675Z,11.39
2022-11-06T17:06:42.161Z,11.36
2022-11-06T17:09:32.001Z,11.34
2022-11-06T17:12:03.010Z,11.30
2022-11-06T17:14:34.450Z,11.26
2022-11-06T17:17:05.720Z,11.20
2022-11-06T17:19:35.417Z,11.12
2022-11-06T17:22:12.419Z,11.05
2022-11-06T17:24:42.172Z,10.99
2022-11-06T17:27:11.980Z,10.92
2022-11-06T17:29:41.654Z,10.84
2022-11-06T17:32:11.371Z,10.77
2022-11-06T17:34:41.059Z,10.71
2022-11-06T17:37:15.836Z,10.66
2022-11-06T17:39:45.550Z,10.63
2022-11-06T17:42:15.237Z,10.57
2022-11-06T17:44:44.918Z,10.54
2022-11-06T17:47:14.587Z,10.54
2022-11-06T17:49:44.318Z,10.52
2022-11-06T17:52:16.620Z,10.46
2022-11-06T17:54:46.370Z,10.43
2022-11-06T17:57:22.830Z,10.38
2022-11-06T17:59:53.705Z,10.31
2022-11-06T18:02:47.603Z,10.27
2022-11-06T18:05:13.467Z,10.25
2022-11-06T18:07:45.762Z,10.21
2022-11-06T18:10:15.480Z,10.18
2022-11-06T18:12:45.150Z,10.15
2022-11-06T18:15:15.014Z,10.10
2022-11-06T18:17:44.724Z,10.04
2022-11-06T18:20:14.772Z,10.00
2022-11-06T18:22:47.086Z,9.97
2022-11-06T18:25:16.834Z,9.93
2022-11-06T18:27:46.637Z,9.90
2022-11-06T18:30:16.874Z,9.89
2022-11-06T18:32:46.608Z,9.86
2022-11-06T18:35:16.551Z,9.83
2022-11-06T18:37:48.904Z,9.84
2022-11-06T18:40:18.861Z,9.82
2022-11-06T18:42:48.576Z,9.82
2022-11-06T18:45:18.335Z,9.79
2022-11-06T18:47:48.020Z,9.75
2022-11-06T18:50:17.891Z,9.75
2022-11-06T18:52:57.850Z,9.74
2022-11-06T18:55:28.257Z,9.73
2022-11-06T18:57:58.217Z,9.71
2022-11-06T19:00:28.555Z,9.69
2022-11-06T19:02:58.327Z,9.68
2022-11-06T19:05:28.088Z,9.69
2022-11-06T19:08:00.780Z,9.67
2022-11-06T19:10:31.395Z,9.67
2022-11-06T19:13:01.131Z,9.67
2022-11-06T19:15:30.843Z,9.66
2022-11-06T19:18:01.240Z,9.65
2022-11-06T19:20:31.123Z,9.65
2022-11-06T19:23:03.489Z,9.67
2022-11-06T19:25:33.168Z,9.67
2022-11-06T19:28:03.154Z,9.67
2022-11-06T19:30:33.441Z,9.67
2022-11-06T19:33:03.175Z,9.67
2022-11-06T19:35:33.045Z,9.71
2022-11-06T19:38:05.501Z,9.72
2022-11-06T19:40:35.759Z,9.71
2022-11-06T19:43:07.136Z,9.68
2022-11-06T19:45:37.733Z,9.67
2022-11-06T19:48:08.425Z,9.67
2022-11-06T19:50:58.695Z,9.65
2022-11-06T19:53:31.363Z,9.64
2022-11-06T19:56:01.746Z,9.65
2022-11-06T19:58:31.597Z,9.63
2022-11-06T20:01:01.371Z,9.64
2022-11-06T20:03:31.120Z,9.64
2022-11-06T20:06:06.442Z,9.64
2022-11-06T20:08:40.156Z,9.66
2022-11-06T20:11:12.437Z,9.67
2022-11-06T20:13:42.506Z,9.67
2022-11-06T20:16:15.190Z,9.69
2022-11-06T20:18:45.161Z,9.69
2022-11-06T20:21:15.372Z,9.71
2022-11-06T20:23:47.835Z,9.73
2022-11-06T20:26:18.492Z,9.73
2022-11-06T20:28:48.686Z,9.72
2022-11-06T20:31:20.147Z,9.74
2022-11-06T20:33:50.379Z,9.73
2022-11-06T20:36:44.322Z,9.73
2022-11-06T20:39:17.083Z,9.75
2022-11-06T20:41:46.911Z,9.76
2022-11-06T20:44:18.063Z,9.77
2022-11-06T20:46:48.103Z,9.79
2022-11-06T20:49:18.460Z,9.78
2022-11-06T20:52:12.722Z,9.80
2022-11-06T20:54:46.339Z,9.80
2022-11-06T20:57:17.276Z,9.83
2022-11-06T20:59:46.976Z,9.84
2022-11-06T21:02:16.806Z,9.87
2022-11-06T21:04:46.914Z,9.89
2022-11-06T21:07:16.726Z,9.90
2022-11-06T21:09:49.160Z,9.93
2022-11-06T21:12:19.171Z,9.94
2022-11-06T21:14:48.895Z,9.94
2022-11-06T21:17:18.602Z,9.96
2022-11-06T21:19:48.348Z,9.97
2022-11-06T21:22:18.044Z,9.99
2022-11-06T21:24:50.352Z,10.01
2022-11-06T21:27:20.201Z,10.02
2022-11-06T21:29:49.894Z,10.02
2022-11-06T21:32:19.984Z,10.03
2022-11-06T21:34:52.526Z,10.06
2022-11-06T21:37:33.007Z,10.08
2022-11-06T21:40:05.828Z,10.08
2022-11-06T21:42:35.602Z,10.10
2022-11-06T21:45:05.383Z,10.14
2022-11-06T21:47:35.093Z,10.14
2022-11-06T21:50:04.925Z,10.13
2022-11-06T21:52:47.101Z,10.17
2022-11-06T21:55:33.021Z,10.18
2022-11-06T21:58:02.966Z,10.19
2022-11-06T22:00:33.094Z,10.21
2022-11-06T22:03:47.943Z,10.25
2022-11-06T22:06:20.956Z,10.27
2022-11-06T22:08:52.119Z,10.29
2022-11-06T22:11:26.898Z,10.32
2022-11-06T22:13:58.519Z,10.33
2022-11-06T22:16:30.315Z,10.35
2022-11-06T22:19:01.337Z,10.39
2022-11-06T22:21:32.618Z,10.43
2022-11-06T22:24:02.532Z,10.46
2022-11-06T22:26:37.925Z,10.48
2022-11-06T22:29:10.547Z,10.50
2022-11-06T22:31:40.293Z,10.53
2022-11-06T22:34:11.771Z,10.54
2022-11-06T22:36:42.163Z,10.59
2022-11-06T22:39:14.123Z,10.62
2022-11-06T22:41:46.451Z,10.65
2022-11-06T22:44:16.309Z,10.67
2022-11-06T22:46:47.407Z,10.72
2022-11-06T22:49:17.165Z,10.74
2022-11-06T22:51:48.016Z,10.76
2022-11-06T22:54:17.782Z,10.79
2022-11-06T22:56:50.084Z,10.81
2022-11-06T22:59:20.863Z,10.81
2022-11-06T23:01:50.604Z,10.83
2022-11-06T23:04:20.319Z,10.86
2022-11-06T23:06:50.017Z,10.87
2022-11-06T23:09:19.710Z,10.88
2022-11-06T23:11:52.127Z,10.91
2022-11-06T23:14:21.823Z,10.93
2022-11-06T23:17:01.145Z,10.94
2022-11-06T23:19:32.759Z,10.95
2022-11-06T23:22:15.147Z,10.98
2022-11-06T23:24:45.107Z,10.98
2022-11-06T23:27:17.484Z,11.00
2022-11-06T23:29:47.243Z,11.03
2022-11-06T23:32:16.924Z,11.04
2022-11-06T23:34:46.598Z,11.07
2022-11-06T23:37:16.275Z,11.10
2022-11-06T23:39:45.983Z,11.11
2022-11-06T23:42:20.977Z,11.12
2022-11-06T23:45:03.359Z,11.12
2022-11-06T23:47:33.543Z,11.11
2022-11-06T23:50:03.561Z,11.08
2022-11-06T23:52:34.242Z,11.08
2022-11-06T23:55:04.071Z,11.07
2022-11-06T23:57:36.430Z,11.09
